sensor_id;sensor_type;location;lat;lon;timestamp;P1;durP1;ratioP1;P2;durP2;ratioP2
1128;SDS011;553;51.038;7.216;2023-08-08T00:00:28;5.50;;;2.70;;
1128;SDS011;553;51.038;7.216;2023-08-08T00:02:55;4.20;;;2.87;;
1128;SDS011;553;51.038;7.216;2023-08-08T00:05:22;4.67;;;3.17;;
1128;SDS011;553;51.038;7.216;2023-08-08T00:07:49;7.50;;;3.30;;
1128;SDS011;553;51.038;7.216;2023-08-08T00:10:15;4.77;;;3.03;;
1128;SDS011;553;51.038;7.216;2023-08-08T00:12:42;3.73;;;2.70;;
1128;SDS011;553;51.038;7.216;2023-08-08T00:15:09;15.70;;;3.10;;
1128;SDS011;553;51.038;7.216;2023-08-08T00:17:35;3.97;;;2.50;;
1128;SDS011;553;51.038;7.216;2023-08-08T00:20:02;3.70;;;2.80;;
1128;SDS011;553;51.038;7.216;2023-08-08T00:22:30;6.97;;;2.63;;
1128;SDS011;553;51.038;7.216;2023-08-08T00:24:56;5.17;;;2.70;;
1128;SDS011;553;51.038;7.216;2023-08-08T00:27:24;4.57;;;2.60;;
1128;SDS011;553;51.038;7.216;2023-08-08T00:29:51;5.77;;;2.80;;
1128;SDS011;553;51.038;7.216;2023-08-08T00:32:19;5.67;;;2.70;;
1128;SDS011;553;51.038;7.216;2023-08-08T00:34:46;2.87;;;2.30;;
1128;SDS011;553;51.038;7.216;2023-08-08T00:37:12;3.80;;;3.03;;
1128;SDS011;553;51.038;7.216;2023-08-08T00:39:39;4.10;;;2.70;;
1128;SDS011;553;51.038;7.216;2023-08-08T00:42:09;8.60;;;2.70;;
1128;SDS011;553;51.038;7.216;2023-08-08T00:44:36;4.50;;;3.40;;
1128;SDS011;553;51.038;7.216;2023-08-08T00:47:03;4.17;;;2.97;;
1128;SDS011;553;51.038;7.216;2023-08-08T00:49:30;4.97;;;3.00;;
1128;SDS011;553;51.038;7.216;2023-08-08T00:51:57;5.40;;;2.40;;
1128;SDS011;553;51.038;7.216;2023-08-08T00:54:25;7.07;;;2.90;;
1128;SDS011;553;51.038;7.216;2023-08-08T00:56:52;7.43;;;2.90;;
1128;SDS011;553;51.038;7.216;2023-08-08T00:59:19;4.63;;;3.00;;
1128;SDS011;553;51.038;7.216;2023-08-08T01:01:47;5.57;;;3.00;;
1128;SDS011;553;51.038;7.216;2023-08-08T01:04:14;4.23;;;3.07;;
1128;SDS011;553;51.038;7.216;2023-08-08T01:06:49;6.40;;;3.60;;
1128;SDS011;553;51.038;7.216;2023-08-08T01:09:25;4.67;;;2.33;;
1128;SDS011;553;51.038;7.216;2023-08-08T01:11:55;7.43;;;3.10;;
1128;SDS011;553;51.038;7.216;2023-08-08T01:14:23;5.17;;;3.43;;
1128;SDS011;553;51.038;7.216;2023-08-08T01:16:52;6.27;;;3.20;;
1128;SDS011;553;51.038;7.216;2023-08-08T01:19:26;5.10;;;3.37;;
1128;SDS011;553;51.038;7.216;2023-08-08T01:21:54;5.60;;;2.93;;
1128;SDS011;553;51.038;7.216;2023-08-08T01:24:29;6.63;;;2.90;;
1128;SDS011;553;51.038;7.216;2023-08-08T01:26:59;5.57;;;3.33;;
1128;SDS011;553;51.038;7.216;2023-08-08T01:29:27;5.40;;;3.03;;
1128;SDS011;553;51.038;7.216;2023-08-08T01:31:54;4.10;;;3.10;;
1128;SDS011;553;51.038;7.216;2023-08-08T01:34:21;7.87;;;3.20;;
1128;SDS011;553;51.038;7.216;2023-08-08T01:36:49;5.47;;;4.03;;
1128;SDS011;553;51.038;7.216;2023-08-08T01:39:27;10.63;;;4.30;;
1128;SDS011;553;51.038;7.216;2023-08-08T01:41:57;5.07;;;3.23;;
1128;SDS011;553;51.038;7.216;2023-08-08T01:44:27;5.27;;;4.17;;
1128;SDS011;553;51.038;7.216;2023-08-08T01:46:55;6.50;;;3.90;;
1128;SDS011;553;51.038;7.216;2023-08-08T01:49:22;6.00;;;4.43;;
1128;SDS011;553;51.038;7.216;2023-08-08T01:51:48;9.43;;;4.40;;
1128;SDS011;553;51.038;7.216;2023-08-08T01:54:17;7.27;;;4.03;;
1128;SDS011;553;51.038;7.216;2023-08-08T01:56:44;7.33;;;3.40;;
1128;SDS011;553;51.038;7.216;2023-08-08T01:59:11;5.00;;;3.40;;
1128;SDS011;553;51.038;7.216;2023-08-08T02:01:41;5.53;;;3.80;;
1128;SDS011;553;51.038;7.216;2023-08-08T02:04:08;6.30;;;3.97;;
1128;SDS011;553;51.038;7.216;2023-08-08T02:06:35;5.73;;;3.83;;
1128;SDS011;553;51.038;7.216;2023-08-08T02:09:02;6.00;;;4.57;;
1128;SDS011;553;51.038;7.216;2023-08-08T02:11:29;5.93;;;3.67;;
1128;SDS011;553;51.038;7.216;2023-08-08T02:13:56;7.43;;;4.10;;
1128;SDS011;553;51.038;7.216;2023-08-08T02:16:22;6.67;;;3.67;;
1128;SDS011;553;51.038;7.216;2023-08-08T02:18:52;7.37;;;3.97;;
1128;SDS011;553;51.038;7.216;2023-08-08T02:21:19;8.40;;;4.00;;
1128;SDS011;553;51.038;7.216;2023-08-08T02:23:47;8.63;;;3.80;;
1128;SDS011;553;51.038;7.216;2023-08-08T02:26:14;4.77;;;3.67;;
1128;SDS011;553;51.038;7.216;2023-08-08T02:28:41;4.67;;;3.73;;
1128;SDS011;553;51.038;7.216;2023-08-08T02:31:08;5.27;;;4.00;;
1128;SDS011;553;51.038;7.216;2023-08-08T02:33:35;3.60;;;2.90;;
1128;SDS011;553;51.038;7.216;2023-08-08T02:36:01;7.03;;;3.70;;
1128;SDS011;553;51.038;7.216;2023-08-08T02:38:28;5.27;;;3.53;;
1128;SDS011;553;51.038;7.216;2023-08-08T02:40:55;9.03;;;4.07;;
1128;SDS011;553;51.038;7.216;2023-08-08T02:43:22;8.87;;;3.57;;
1128;SDS011;553;51.038;7.216;2023-08-08T02:45:49;6.10;;;3.80;;
1128;SDS011;553;51.038;7.216;2023-08-08T02:48:15;5.97;;;3.90;;
1128;SDS011;553;51.038;7.216;2023-08-08T02:50:42;6.33;;;3.77;;
1128;SDS011;553;51.038;7.216;2023-08-08T02:53:09;6.63;;;3.30;;
1128;SDS011;553;51.038;7.216;2023-08-08T02:55:42;4.43;;;3.17;;
1128;SDS011;553;51.038;7.216;2023-08-08T02:58:08;8.13;;;3.00;;
1128;SDS011;553;51.038;7.216;2023-08-08T03:00:35;7.13;;;3.07;;
1128;SDS011;553;51.038;7.216;2023-08-08T03:03:03;5.40;;;3.40;;
1128;SDS011;553;51.038;7.216;2023-08-08T03:05:31;6.27;;;3.77;;
1128;SDS011;553;51.038;7.216;2023-08-08T03:07:59;7.67;;;3.40;;
1128;SDS011;553;51.038;7.216;2023-08-08T03:10:26;8.60;;;3.70;;
1128;SDS011;553;51.038;7.216;2023-08-08T03:12:53;4.10;;;3.47;;
1128;SDS011;553;51.038;7.216;2023-08-08T03:15:21;8.03;;;4.10;;
1128;SDS011;553;51.038;7.216;2023-08-08T03:17:48;7.40;;;3.70;;
1128;SDS011;553;51.038;7.216;2023-08-08T03:20:16;7.70;;;4.00;;
1128;SDS011;553;51.038;7.216;2023-08-08T03:22:43;5.30;;;3.30;;
1128;SDS011;553;51.038;7.216;2023-08-08T03:25:10;5.17;;;3.40;;
1128;SDS011;553;51.038;7.216;2023-08-08T03:27:37;6.30;;;3.83;;
1128;SDS011;553;51.038;7.216;2023-08-08T03:30:05;4.37;;;3.30;;
1128;SDS011;553;51.038;7.216;2023-08-08T03:32:38;5.43;;;3.43;;
1128;SDS011;553;51.038;7.216;2023-08-08T03:35:05;3.77;;;3.37;;
1128;SDS011;553;51.038;7.216;2023-08-08T03:37:33;4.70;;;4.03;;
1128;SDS011;553;51.038;7.216;2023-08-08T03:40:00;6.50;;;3.67;;
1128;SDS011;553;51.038;7.216;2023-08-08T03:42:28;6.47;;;3.83;;
1128;SDS011;553;51.038;7.216;2023-08-08T03:44:55;7.37;;;3.23;;
1128;SDS011;553;51.038;7.216;2023-08-08T03:47:22;4.33;;;3.30;;
1128;SDS011;553;51.038;7.216;2023-08-08T03:49:49;10.40;;;3.73;;
1128;SDS011;553;51.038;7.216;2023-08-08T03:52:16;5.67;;;4.17;;
1128;SDS011;553;51.038;7.216;2023-08-08T03:54:43;6.23;;;4.00;;
1128;SDS011;553;51.038;7.216;2023-08-08T03:57:10;6.97;;;4.20;;
1128;SDS011;553;51.038;7.216;2023-08-08T03:59:37;7.03;;;3.53;;
1128;SDS011;553;51.038;7.216;2023-08-08T04:02:04;8.13;;;4.27;;
1128;SDS011;553;51.038;7.216;2023-08-08T04:04:31;5.17;;;3.10;;
1128;SDS011;553;51.038;7.216;2023-08-08T04:06:58;4.23;;;3.43;;
1128;SDS011;553;51.038;7.216;2023-08-08T04:09:25;9.07;;;3.83;;
1128;SDS011;553;51.038;7.216;2023-08-08T04:11:52;8.10;;;4.33;;
1128;SDS011;553;51.038;7.216;2023-08-08T04:14:19;7.07;;;3.40;;
1128;SDS011;553;51.038;7.216;2023-08-08T04:16:45;5.30;;;3.33;;
1128;SDS011;553;51.038;7.216;2023-08-08T04:19:12;4.53;;;3.40;;
1128;SDS011;553;51.038;7.216;2023-08-08T04:21:39;7.93;;;3.70;;
1128;SDS011;553;51.038;7.216;2023-08-08T04:24:05;6.17;;;4.27;;
1128;SDS011;553;51.038;7.216;2023-08-08T04:26:34;5.73;;;3.93;;
1128;SDS011;553;51.038;7.216;2023-08-08T04:29:00;4.77;;;3.77;;
1128;SDS011;553;51.038;7.216;2023-08-08T04:31:27;6.60;;;3.33;;
1128;SDS011;553;51.038;7.216;2023-08-08T04:33:55;4.97;;;3.30;;
1128;SDS011;553;51.038;7.216;2023-08-08T04:36:27;6.57;;;3.83;;
1128;SDS011;553;51.038;7.216;2023-08-08T04:38:55;7.23;;;3.30;;
1128;SDS011;553;51.038;7.216;2023-08-08T04:41:22;8.03;;;3.60;;
1128;SDS011;553;51.038;7.216;2023-08-08T04:43:48;9.20;;;4.20;;
1128;SDS011;553;51.038;7.216;2023-08-08T04:46:15;5.80;;;3.77;;
1128;SDS011;553;51.038;7.216;2023-08-08T04:48:42;8.63;;;3.30;;
1128;SDS011;553;51.038;7.216;2023-08-08T04:51:09;8.03;;;3.40;;
1128;SDS011;553;51.038;7.216;2023-08-08T04:53:36;6.23;;;3.97;;
1128;SDS011;553;51.038;7.216;2023-08-08T04:56:02;9.90;;;3.47;;
1128;SDS011;553;51.038;7.216;2023-08-08T04:58:29;4.60;;;3.60;;
1128;SDS011;553;51.038;7.216;2023-08-08T05:00:56;7.30;;;3.80;;
1128;SDS011;553;51.038;7.216;2023-08-08T05:03:23;5.77;;;3.50;;
1128;SDS011;553;51.038;7.216;2023-08-08T05:05:50;6.00;;;4.10;;
1128;SDS011;553;51.038;7.216;2023-08-08T05:08:17;6.20;;;3.90;;
1128;SDS011;553;51.038;7.216;2023-08-08T05:10:43;4.73;;;4.07;;
1128;SDS011;553;51.038;7.216;2023-08-08T05:13:10;10.77;;;4.37;;
1128;SDS011;553;51.038;7.216;2023-08-08T05:15:37;5.50;;;4.30;;
1128;SDS011;553;51.038;7.216;2023-08-08T05:18:04;5.93;;;3.70;;
1128;SDS011;553;51.038;7.216;2023-08-08T05:20:31;7.40;;;4.40;;
1128;SDS011;553;51.038;7.216;2023-08-08T05:22:58;8.63;;;4.27;;
1128;SDS011;553;51.038;7.216;2023-08-08T05:25:24;10.17;;;4.30;;
1128;SDS011;553;51.038;7.216;2023-08-08T05:27:51;8.30;;;4.90;;
1128;SDS011;553;51.038;7.216;2023-08-08T05:30:19;6.43;;;4.53;;
1128;SDS011;553;51.038;7.216;2023-08-08T05:32:46;6.00;;;4.00;;
1128;SDS011;553;51.038;7.216;2023-08-08T05:35:13;9.00;;;4.90;;
1128;SDS011;553;51.038;7.216;2023-08-08T05:37:39;6.47;;;4.33;;
1128;SDS011;553;51.038;7.216;2023-08-08T05:40:06;4.83;;;4.20;;
1128;SDS011;553;51.038;7.216;2023-08-08T05:42:33;9.30;;;4.50;;
1128;SDS011;553;51.038;7.216;2023-08-08T05:45:00;7.10;;;4.80;;
1128;SDS011;553;51.038;7.216;2023-08-08T05:47:27;7.50;;;4.10;;
1128;SDS011;553;51.038;7.216;2023-08-08T05:49:54;6.93;;;4.40;;
1128;SDS011;553;51.038;7.216;2023-08-08T05:52:21;6.80;;;4.60;;
1128;SDS011;553;51.038;7.216;2023-08-08T05:54:48;9.00;;;4.50;;
1128;SDS011;553;51.038;7.216;2023-08-08T05:57:14;12.43;;;5.30;;
1128;SDS011;553;51.038;7.216;2023-08-08T05:59:41;8.80;;;4.77;;
1128;SDS011;553;51.038;7.216;2023-08-08T06:02:10;12.07;;;4.70;;
1128;SDS011;553;51.038;7.216;2023-08-08T06:04:37;11.87;;;5.23;;
1128;SDS011;553;51.038;7.216;2023-08-08T06:07:04;9.50;;;5.60;;
1128;SDS011;553;51.038;7.216;2023-08-08T06:09:35;9.90;;;5.60;;
1128;SDS011;553;51.038;7.216;2023-08-08T06:12:03;9.13;;;5.37;;
1128;SDS011;553;51.038;7.216;2023-08-08T06:14:30;8.17;;;5.37;;
1128;SDS011;553;51.038;7.216;2023-08-08T06:16:57;12.30;;;5.83;;
1128;SDS011;553;51.038;7.216;2023-08-08T06:19:24;11.10;;;4.80;;
1128;SDS011;553;51.038;7.216;2023-08-08T06:21:51;12.33;;;5.77;;
1128;SDS011;553;51.038;7.216;2023-08-08T06:24:17;11.30;;;6.27;;
1128;SDS011;553;51.038;7.216;2023-08-08T06:26:44;10.30;;;6.07;;
1128;SDS011;553;51.038;7.216;2023-08-08T06:29:11;11.80;;;6.53;;
1128;SDS011;553;51.038;7.216;2023-08-08T06:31:40;12.13;;;6.47;;
1128;SDS011;553;51.038;7.216;2023-08-08T06:34:08;10.40;;;5.90;;
1128;SDS011;553;51.038;7.216;2023-08-08T06:36:35;10.63;;;6.67;;
1128;SDS011;553;51.038;7.216;2023-08-08T06:39:02;9.77;;;6.10;;
1128;SDS011;553;51.038;7.216;2023-08-08T06:41:29;9.40;;;6.37;;
1128;SDS011;553;51.038;7.216;2023-08-08T06:43:56;12.13;;;6.90;;
1128;SDS011;553;51.038;7.216;2023-08-08T06:46:23;13.90;;;7.50;;
1128;SDS011;553;51.038;7.216;2023-08-08T06:48:51;12.57;;;7.07;;
1128;SDS011;553;51.038;7.216;2023-08-08T06:51:23;11.00;;;6.43;;
1128;SDS011;553;51.038;7.216;2023-08-08T06:53:51;12.60;;;6.47;;
1128;SDS011;553;51.038;7.216;2023-08-08T06:56:18;13.50;;;6.00;;
1128;SDS011;553;51.038;7.216;2023-08-08T06:58:45;14.40;;;6.47;;
1128;SDS011;553;51.038;7.216;2023-08-08T07:01:11;8.83;;;5.37;;
1128;SDS011;553;51.038;7.216;2023-08-08T07:03:39;12.40;;;6.63;;
1128;SDS011;553;51.038;7.216;2023-08-08T07:06:06;17.00;;;7.33;;
1128;SDS011;553;51.038;7.216;2023-08-08T07:08:33;9.40;;;6.17;;
1128;SDS011;553;51.038;7.216;2023-08-08T07:11:00;16.17;;;6.20;;
1128;SDS011;553;51.038;7.216;2023-08-08T07:13:27;7.33;;;4.97;;
1128;SDS011;553;51.038;7.216;2023-08-08T07:15:54;11.13;;;5.37;;
1128;SDS011;553;51.038;7.216;2023-08-08T07:18:20;9.90;;;5.23;;
1128;SDS011;553;51.038;7.216;2023-08-08T07:20:47;14.33;;;5.33;;
1128;SDS011;553;51.038;7.216;2023-08-08T07:23:15;10.47;;;5.00;;
1128;SDS011;553;51.038;7.216;2023-08-08T07:25:43;7.57;;;4.43;;
1128;SDS011;553;51.038;7.216;2023-08-08T07:28:09;14.77;;;5.20;;
1128;SDS011;553;51.038;7.216;2023-08-08T07:30:36;12.00;;;4.80;;
1128;SDS011;553;51.038;7.216;2023-08-08T07:33:03;12.00;;;5.17;;
1128;SDS011;553;51.038;7.216;2023-08-08T07:35:30;10.90;;;5.60;;
1128;SDS011;553;51.038;7.216;2023-08-08T07:37:58;6.40;;;5.40;;
1128;SDS011;553;51.038;7.216;2023-08-08T07:40:25;8.63;;;6.20;;
1128;SDS011;553;51.038;7.216;2023-08-08T07:42:51;14.97;;;7.13;;
1128;SDS011;553;51.038;7.216;2023-08-08T07:45:18;7.57;;;5.60;;
1128;SDS011;553;51.038;7.216;2023-08-08T07:47:45;8.73;;;6.50;;
1128;SDS011;553;51.038;7.216;2023-08-08T07:50:12;9.93;;;6.10;;
1128;SDS011;553;51.038;7.216;2023-08-08T07:52:39;13.07;;;5.83;;
1128;SDS011;553;51.038;7.216;2023-08-08T07:55:06;13.27;;;7.40;;
1128;SDS011;553;51.038;7.216;2023-08-08T07:57:33;7.87;;;6.60;;
1128;SDS011;553;51.038;7.216;2023-08-08T08:00:03;14.03;;;6.53;;
1128;SDS011;553;51.038;7.216;2023-08-08T08:02:37;12.00;;;6.33;;
1128;SDS011;553;51.038;7.216;2023-08-08T08:05:08;10.23;;;7.23;;
1128;SDS011;553;51.038;7.216;2023-08-08T08:07:35;16.67;;;6.90;;
1128;SDS011;553;51.038;7.216;2023-08-08T08:10:03;15.80;;;6.27;;
1128;SDS011;553;51.038;7.216;2023-08-08T08:12:32;9.83;;;6.43;;
1128;SDS011;553;51.038;7.216;2023-08-08T08:14:59;10.83;;;6.27;;
1128;SDS011;553;51.038;7.216;2023-08-08T08:17:26;9.50;;;6.57;;
1128;SDS011;553;51.038;7.216;2023-08-08T08:19:54;14.00;;;7.60;;
1128;SDS011;553;51.038;7.216;2023-08-08T08:22:21;10.73;;;6.67;;
1128;SDS011;553;51.038;7.216;2023-08-08T08:24:48;10.33;;;6.10;;
1128;SDS011;553;51.038;7.216;2023-08-08T08:27:14;9.77;;;7.10;;
1128;SDS011;553;51.038;7.216;2023-08-08T08:29:41;11.33;;;6.60;;
1128;SDS011;553;51.038;7.216;2023-08-08T08:32:08;9.60;;;6.30;;
1128;SDS011;553;51.038;7.216;2023-08-08T08:34:35;9.43;;;5.83;;
1128;SDS011;553;51.038;7.216;2023-08-08T08:37:02;8.40;;;6.30;;
1128;SDS011;553;51.038;7.216;2023-08-08T08:39:29;10.47;;;6.90;;
1128;SDS011;553;51.038;7.216;2023-08-08T08:41:58;9.90;;;5.70;;
1128;SDS011;553;51.038;7.216;2023-08-08T08:44:31;10.70;;;6.13;;
1128;SDS011;553;51.038;7.216;2023-08-08T08:46:59;13.63;;;5.80;;
1128;SDS011;553;51.038;7.216;2023-08-08T08:49:31;12.40;;;5.77;;
1128;SDS011;553;51.038;7.216;2023-08-08T08:51:58;10.40;;;5.10;;
1128;SDS011;553;51.038;7.216;2023-08-08T08:54:31;10.20;;;6.07;;
1128;SDS011;553;51.038;7.216;2023-08-08T08:56:58;10.33;;;4.50;;
1128;SDS011;553;51.038;7.216;2023-08-08T08:59:25;8.50;;;5.73;;
1128;SDS011;553;51.038;7.216;2023-08-08T09:01:53;8.10;;;6.40;;
1128;SDS011;553;51.038;7.216;2023-08-08T09:04:21;12.13;;;6.13;;
1128;SDS011;553;51.038;7.216;2023-08-08T09:06:50;9.67;;;6.90;;
1128;SDS011;553;51.038;7.216;2023-08-08T09:09:17;10.47;;;7.80;;
1128;SDS011;553;51.038;7.216;2023-08-08T09:11:48;15.73;;;8.37;;
1128;SDS011;553;51.038;7.216;2023-08-08T09:16:47;17.50;;;9.13;;
1128;SDS011;553;51.038;7.216;2023-08-08T09:19:15;13.97;;;8.73;;
1128;SDS011;553;51.038;7.216;2023-08-08T09:21:43;22.40;;;9.57;;
1128;SDS011;553;51.038;7.216;2023-08-08T09:24:10;15.60;;;9.03;;
1128;SDS011;553;51.038;7.216;2023-08-08T09:26:38;11.80;;;9.80;;
1128;SDS011;553;51.038;7.216;2023-08-08T09:29:06;18.27;;;9.50;;
1128;SDS011;553;51.038;7.216;2023-08-08T09:31:34;14.23;;;9.67;;
1128;SDS011;553;51.038;7.216;2023-08-08T09:34:02;17.57;;;11.27;;
1128;SDS011;553;51.038;7.216;2023-08-08T09:36:30;17.00;;;10.30;;
1128;SDS011;553;51.038;7.216;2023-08-08T09:38:59;12.77;;;9.77;;
1128;SDS011;553;51.038;7.216;2023-08-08T09:41:27;21.23;;;12.13;;
1128;SDS011;553;51.038;7.216;2023-08-08T09:43:54;15.47;;;11.30;;
1128;SDS011;553;51.038;7.216;2023-08-08T09:46:21;17.07;;;10.17;;
1128;SDS011;553;51.038;7.216;2023-08-08T09:48:52;14.63;;;11.67;;
1128;SDS011;553;51.038;7.216;2023-08-08T09:51:19;15.57;;;12.20;;
1128;SDS011;553;51.038;7.216;2023-08-08T09:53:47;19.27;;;13.17;;
1128;SDS011;553;51.038;7.216;2023-08-08T09:56:15;19.93;;;13.97;;
1128;SDS011;553;51.038;7.216;2023-08-08T09:58:42;19.30;;;14.13;;
1128;SDS011;553;51.038;7.216;2023-08-08T10:01:10;19.83;;;14.10;;
1128;SDS011;553;51.038;7.216;2023-08-08T10:03:39;17.20;;;13.10;;
1128;SDS011;553;51.038;7.216;2023-08-08T10:06:09;19.50;;;13.97;;
1128;SDS011;553;51.038;7.216;2023-08-08T10:08:36;15.63;;;12.00;;
1128;SDS011;553;51.038;7.216;2023-08-08T10:11:04;13.07;;;11.53;;
1128;SDS011;553;51.038;7.216;2023-08-08T10:13:33;12.83;;;11.50;;
1128;SDS011;553;51.038;7.216;2023-08-08T10:16:07;14.33;;;12.83;;
1128;SDS011;553;51.038;7.216;2023-08-08T10:18:35;16.47;;;12.53;;
1128;SDS011;553;51.038;7.216;2023-08-08T10:21:03;18.73;;;14.00;;
1128;SDS011;553;51.038;7.216;2023-08-08T10:23:35;14.17;;;12.70;;
1128;SDS011;553;51.038;7.216;2023-08-08T10:26:03;14.13;;;11.97;;
1128;SDS011;553;51.038;7.216;2023-08-08T10:28:31;16.87;;;13.17;;
1128;SDS011;553;51.038;7.216;2023-08-08T10:31:01;16.90;;;12.23;;
1128;SDS011;553;51.038;7.216;2023-08-08T10:33:38;18.07;;;13.07;;
1128;SDS011;553;51.038;7.216;2023-08-08T10:36:07;24.17;;;12.40;;
1128;SDS011;553;51.038;7.216;2023-08-08T10:38:40;23.03;;;13.20;;
1128;SDS011;553;51.038;7.216;2023-08-08T10:41:11;14.50;;;13.07;;
1128;SDS011;553;51.038;7.216;2023-08-08T10:43:53;16.27;;;12.70;;
1128;SDS011;553;51.038;7.216;2023-08-08T10:46:29;17.47;;;11.40;;
1128;SDS011;553;51.038;7.216;2023-08-08T10:48:58;12.83;;;11.50;;
1128;SDS011;553;51.038;7.216;2023-08-08T10:51:49;14.60;;;12.30;;
1128;SDS011;553;51.038;7.216;2023-08-08T10:56:54;16.03;;;10.77;;
1128;SDS011;553;51.038;7.216;2023-08-08T10:59:23;12.67;;;10.53;;
1128;SDS011;553;51.038;7.216;2023-08-08T11:01:52;12.30;;;10.73;;
1128;SDS011;553;51.038;7.216;2023-08-08T11:04:20;14.33;;;10.33;;
1128;SDS011;553;51.038;7.216;2023-08-08T11:06:49;13.77;;;10.40;;
1128;SDS011;553;51.038;7.216;2023-08-08T11:09:18;12.57;;;9.90;;
1128;SDS011;553;51.038;7.216;2023-08-08T11:11:45;18.17;;;10.90;;
1128;SDS011;553;51.038;7.216;2023-08-08T11:14:16;11.27;;;8.67;;
1128;SDS011;553;51.038;7.216;2023-08-08T11:16:46;11.47;;;9.47;;
1128;SDS011;553;51.038;7.216;2023-08-08T11:19:14;8.20;;;7.43;;
1128;SDS011;553;51.038;7.216;2023-08-08T11:21:43;9.93;;;8.20;;
1128;SDS011;553;51.038;7.216;2023-08-08T11:24:10;8.87;;;7.97;;
1128;SDS011;553;51.038;7.216;2023-08-08T11:26:39;9.67;;;8.60;;
1128;SDS011;553;51.038;7.216;2023-08-08T11:29:07;11.27;;;8.63;;
1128;SDS011;553;51.038;7.216;2023-08-08T11:31:34;10.33;;;8.17;;
1128;SDS011;553;51.038;7.216;2023-08-08T11:34:02;13.70;;;7.30;;
1128;SDS011;553;51.038;7.216;2023-08-08T11:36:30;12.07;;;7.73;;
1128;SDS011;553;51.038;7.216;2023-08-08T11:39:03;11.77;;;7.47;;
1128;SDS011;553;51.038;7.216;2023-08-08T11:41:35;8.83;;;6.93;;
1128;SDS011;553;51.038;7.216;2023-08-08T11:44:03;10.07;;;7.20;;
1128;SDS011;553;51.038;7.216;2023-08-08T11:46:31;11.00;;;7.27;;
1128;SDS011;553;51.038;7.216;2023-08-08T11:49:04;8.67;;;6.50;;
1128;SDS011;553;51.038;7.216;2023-08-08T11:51:33;7.10;;;5.40;;
1128;SDS011;553;51.038;7.216;2023-08-08T11:54:01;9.10;;;5.83;;
1128;SDS011;553;51.038;7.216;2023-08-08T11:56:32;7.00;;;5.67;;
1128;SDS011;553;51.038;7.216;2023-08-08T11:59:00;6.33;;;4.10;;
1128;SDS011;553;51.038;7.216;2023-08-08T12:01:27;6.87;;;4.50;;
1128;SDS011;553;51.038;7.216;2023-08-08T12:03:55;5.37;;;4.67;;
1128;SDS011;553;51.038;7.216;2023-08-08T12:06:22;7.27;;;4.27;;
1128;SDS011;553;51.038;7.216;2023-08-08T12:08:54;11.87;;;5.07;;
1128;SDS011;553;51.038;7.216;2023-08-08T12:11:22;7.60;;;4.20;;
1128;SDS011;553;51.038;7.216;2023-08-08T12:13:57;12.63;;;4.50;;
1128;SDS011;553;51.038;7.216;2023-08-08T12:16:27;7.80;;;4.40;;
1128;SDS011;553;51.038;7.216;2023-08-08T12:19:04;7.10;;;4.63;;
1128;SDS011;553;51.038;7.216;2023-08-08T12:21:33;9.50;;;4.00;;
1128;SDS011;553;51.038;7.216;2023-08-08T12:24:00;11.73;;;4.43;;
1128;SDS011;553;51.038;7.216;2023-08-08T12:26:27;10.23;;;5.23;;
1128;SDS011;553;51.038;7.216;2023-08-08T12:28:54;4.73;;;3.63;;
1128;SDS011;553;51.038;7.216;2023-08-08T12:31:21;4.57;;;3.70;;
1128;SDS011;553;51.038;7.216;2023-08-08T12:33:48;7.47;;;4.63;;
1128;SDS011;553;51.038;7.216;2023-08-08T12:36:15;7.63;;;4.13;;
1128;SDS011;553;51.038;7.216;2023-08-08T12:38:42;6.67;;;4.03;;
1128;SDS011;553;51.038;7.216;2023-08-08T12:41:08;9.07;;;4.23;;
1128;SDS011;553;51.038;7.216;2023-08-08T12:43:37;6.23;;;4.53;;
1128;SDS011;553;51.038;7.216;2023-08-08T12:46:03;5.87;;;4.30;;
1128;SDS011;553;51.038;7.216;2023-08-08T12:48:30;8.70;;;4.60;;
1128;SDS011;553;51.038;7.216;2023-08-08T12:50:57;8.33;;;4.37;;
1128;SDS011;553;51.038;7.216;2023-08-08T12:53:24;6.93;;;5.10;;
1128;SDS011;553;51.038;7.216;2023-08-08T12:55:51;4.90;;;4.40;;
1128;SDS011;553;51.038;7.216;2023-08-08T12:58:17;8.87;;;6.30;;
1128;SDS011;553;51.038;7.216;2023-08-08T13:00:45;13.03;;;6.67;;
1128;SDS011;553;51.038;7.216;2023-08-08T13:03:12;8.77;;;7.50;;
1128;SDS011;553;51.038;7.216;2023-08-08T13:05:39;11.90;;;7.77;;
1128;SDS011;553;51.038;7.216;2023-08-08T13:08:06;8.93;;;6.70;;
1128;SDS011;553;51.038;7.216;2023-08-08T13:10:32;8.63;;;7.20;;
1128;SDS011;553;51.038;7.216;2023-08-08T13:12:59;11.63;;;7.50;;
1128;SDS011;553;51.038;7.216;2023-08-08T13:15:26;12.37;;;8.27;;
1128;SDS011;553;51.038;7.216;2023-08-08T13:17:53;12.00;;;7.83;;
1128;SDS011;553;51.038;7.216;2023-08-08T13:20:19;12.30;;;7.20;;
1128;SDS011;553;51.038;7.216;2023-08-08T13:22:46;13.80;;;7.13;;
1128;SDS011;553;51.038;7.216;2023-08-08T13:25:13;9.00;;;7.30;;
1128;SDS011;553;51.038;7.216;2023-08-08T13:27:41;12.73;;;6.90;;
1128;SDS011;553;51.038;7.216;2023-08-08T13:30:08;10.93;;;7.53;;
1128;SDS011;553;51.038;7.216;2023-08-08T13:32:35;13.93;;;7.23;;
1128;SDS011;553;51.038;7.216;2023-08-08T13:35:02;12.50;;;6.80;;
1128;SDS011;553;51.038;7.216;2023-08-08T13:37:30;8.77;;;6.30;;
1128;SDS011;553;51.038;7.216;2023-08-08T13:39:57;12.33;;;7.70;;
1128;SDS011;553;51.038;7.216;2023-08-08T13:42:24;8.67;;;6.57;;
1128;SDS011;553;51.038;7.216;2023-08-08T13:44:51;8.17;;;6.80;;
1128;SDS011;553;51.038;7.216;2023-08-08T13:47:20;8.43;;;6.40;;
1128;SDS011;553;51.038;7.216;2023-08-08T13:49:47;10.27;;;6.63;;
1128;SDS011;553;51.038;7.216;2023-08-08T13:52:13;9.33;;;7.37;;
1128;SDS011;553;51.038;7.216;2023-08-08T13:54:40;9.70;;;7.77;;
1128;SDS011;553;51.038;7.216;2023-08-08T13:57:07;10.73;;;7.40;;
1128;SDS011;553;51.038;7.216;2023-08-08T13:59:34;8.57;;;5.97;;
1128;SDS011;553;51.038;7.216;2023-08-08T14:02:01;6.97;;;6.10;;
1128;SDS011;553;51.038;7.216;2023-08-08T14:04:28;9.63;;;7.17;;
1128;SDS011;553;51.038;7.216;2023-08-08T14:06:54;12.30;;;7.33;;
1128;SDS011;553;51.038;7.216;2023-08-08T14:09:21;11.57;;;6.57;;
1128;SDS011;553;51.038;7.216;2023-08-08T14:11:49;11.27;;;6.73;;
1128;SDS011;553;51.038;7.216;2023-08-08T14:14:15;8.57;;;6.57;;
1128;SDS011;553;51.038;7.216;2023-08-08T14:16:42;10.00;;;7.30;;
1128;SDS011;553;51.038;7.216;2023-08-08T14:19:09;9.87;;;7.57;;
1128;SDS011;553;51.038;7.216;2023-08-08T14:21:36;8.17;;;6.90;;
1128;SDS011;553;51.038;7.216;2023-08-08T14:24:03;9.13;;;5.80;;
1128;SDS011;553;51.038;7.216;2023-08-08T14:26:30;11.60;;;6.20;;
1128;SDS011;553;51.038;7.216;2023-08-08T14:28:56;7.93;;;5.70;;
1128;SDS011;553;51.038;7.216;2023-08-08T14:31:24;11.83;;;5.93;;
1128;SDS011;553;51.038;7.216;2023-08-08T14:33:51;8.03;;;4.60;;
1128;SDS011;553;51.038;7.216;2023-08-08T14:36:17;9.10;;;4.20;;
1128;SDS011;553;51.038;7.216;2023-08-08T14:38:44;4.90;;;3.27;;
1128;SDS011;553;51.038;7.216;2023-08-08T14:41:11;5.13;;;2.70;;
1128;SDS011;553;51.038;7.216;2023-08-08T14:43:37;4.80;;;2.10;;
1128;SDS011;553;51.038;7.216;2023-08-08T14:46:04;4.17;;;2.67;;
1128;SDS011;553;51.038;7.216;2023-08-08T14:48:31;5.67;;;2.80;;
1128;SDS011;553;51.038;7.216;2023-08-08T14:51:01;8.90;;;2.70;;
1128;SDS011;553;51.038;7.216;2023-08-08T14:53:29;7.77;;;2.37;;
1128;SDS011;553;51.038;7.216;2023-08-08T14:55:56;6.77;;;1.97;;
1128;SDS011;553;51.038;7.216;2023-08-08T14:58:23;7.27;;;2.90;;
1128;SDS011;553;51.038;7.216;2023-08-08T15:00:52;4.10;;;2.60;;
1128;SDS011;553;51.038;7.216;2023-08-08T15:03:19;3.43;;;2.40;;
1128;SDS011;553;51.038;7.216;2023-08-08T15:05:46;4.40;;;2.53;;
1128;SDS011;553;51.038;7.216;2023-08-08T15:08:14;4.57;;;2.17;;
1128;SDS011;553;51.038;7.216;2023-08-08T15:10:41;7.73;;;3.73;;
1128;SDS011;553;51.038;7.216;2023-08-08T15:13:08;4.97;;;2.47;;
1128;SDS011;553;51.038;7.216;2023-08-08T15:15:35;4.77;;;2.30;;
1128;SDS011;553;51.038;7.216;2023-08-08T15:18:02;4.43;;;2.30;;
1128;SDS011;553;51.038;7.216;2023-08-08T15:20:29;7.03;;;2.47;;
1128;SDS011;553;51.038;7.216;2023-08-08T15:22:56;6.00;;;3.00;;
1128;SDS011;553;51.038;7.216;2023-08-08T15:25:22;10.63;;;2.80;;
1128;SDS011;553;51.038;7.216;2023-08-08T15:27:49;3.30;;;2.07;;
1128;SDS011;553;51.038;7.216;2023-08-08T15:30:16;7.40;;;2.93;;